Time;durP1;ratioP1;P1;durP2;ratioP2;P2;SDS_P1;SDS_P2;PMS_P1;PMS_P2;Temp;Humidity;BMP_temperature;BMP_pressure;BME280_temperature;BME280_humidity;BME280_pressure;Samples;Min_cycle;Max_cycle;Signal;HPM_P1;HPM_P2
2023/06/01 00:02:18;;;;;;;8.93;3.67;;;;;;;18.45;71.51;99856.72;5037096;28;20049;-73
2023/06/01 00:04:44;;;;;;;8.38;4.00;;;;;;;18.45;71.62;99864.72;5028274;28;20030;-72
2023/06/01 00:07:10;;;;;;;8.27;3.80;;;;;;;18.47;71.70;99859.34;5039823;28;20022;-72
2023/06/01 00:09:36;;;;;;;10.90;4.20;;;;;;;18.49;71.46;99853.00;5036655;28;20486;-73
2023/06/01 00:12:02;;;;;;;10.40;4.25;;;;;;;18.48;71.65;99858.41;5034404;28;20473;-73
2023/06/01 00:14:28;;;;;;;14.80;4.25;;;;;;;18.47;71.61;99852.19;5036974;28;20038;-73
2023/06/01 00:16:55;;;;;;;11.53;4.13;;;;;;;18.44;71.41;99851.44;5032247;28;20048;-73
2023/06/01 00:19:21;;;;;;;16.20;4.35;;;;;;;18.41;71.45;99847.13;5034202;28;20017;-72
2023/06/01 00:21:46;;;;;;;9.50;4.40;;;;;;;18.40;71.52;99853.41;5031299;28;20542;-72
2023/06/01 00:24:12;;;;;;;11.20;4.30;;;;;;;18.39;71.56;99856.13;5032000;28;20260;-72
2023/06/01 00:26:37;;;;;;;10.30;4.47;;;;;;;18.39;71.71;99850.78;5017121;28;20030;-72
2023/06/01 00:29:03;;;;;;;11.18;4.35;;;;;;;18.39;71.63;99862.34;5033328;28;20014;-72
2023/06/01 00:31:28;;;;;;;11.03;4.90;;;;;;;18.40;71.60;99857.84;5016128;28;20026;-73
2023/06/01 00:33:54;;;;;;;15.70;4.50;;;;;;;18.39;71.87;99864.13;5035940;28;20033;-73
2023/06/01 00:36:20;;;;;;;12.40;4.65;;;;;;;18.38;71.87;99855.28;5032384;28;20036;-73
2023/06/01 00:38:45;;;;;;;10.33;4.90;;;;;;;18.38;72.10;99862.38;5017060;28;20036;-73
2023/06/01 00:41:11;;;;;;;10.90;4.70;;;;;;;18.38;71.96;99865.06;5037218;28;20025;-72
2023/06/01 00:43:37;;;;;;;8.53;4.37;;;;;;;18.36;72.00;99863.31;5039414;28;20583;-72
2023/06/01 00:46:02;;;;;;;9.23;4.80;;;;;;;18.36;72.08;99873.13;5039115;28;20048;-73
2023/06/01 00:48:28;;;;;;;10.67;4.97;;;;;;;18.36;72.12;99865.97;5040256;28;20102;-73
2023/06/01 00:50:54;;;;;;;11.23;5.00;;;;;;;18.36;72.22;99868.66;5040877;28;20468;-72
2023/06/01 00:53:20;;;;;;;12.63;5.50;;;;;;;18.40;72.15;99864.06;5039336;28;20031;-72
2023/06/01 00:55:46;;;;;;;13.77;5.47;;;;;;;18.42;72.22;99859.53;5040275;28;20022;-73
2023/06/01 00:58:12;;;;;;;13.30;6.18;;;;;;;18.43;72.29;99863.03;5039248;28;20103;-73
2023/06/01 01:00:40;;;;;;;13.75;6.13;;;;;;;18.46;72.26;99854.94;5039015;28;20028;-72
2023/06/01 01:03:09;;;;;;;12.18;5.78;;;;;;;18.48;72.56;99859.25;5039662;28;20025;-72
2023/06/01 01:05:37;;;;;;;15.80;6.10;;;;;;;18.52;72.27;99857.34;5039823;28;20044;-73
2023/06/01 01:08:18;;;;;;;13.02;5.82;;;;;;;18.51;72.06;99860.94;5026588;28;20032;-73
2023/06/01 01:10:49;;;;;;;11.55;5.95;;;;;;;18.51;72.07;99850.25;5039784;28;20025;-73
2023/06/01 01:13:23;;;;;;;13.07;6.40;;;;;;;18.51;72.22;99860.94;5030799;28;20038;-73
2023/06/01 01:16:18;;;;;;;13.43;6.30;;;;;;;18.50;72.17;99853.88;5039249;28;20073;-72
2023/06/01 01:19:07;;;;;;;13.80;6.60;;;;;;;18.49;72.07;99860.13;5039541;28;20033;-73
2023/06/01 01:21:38;;;;;;;16.45;7.32;;;;;;;18.49;72.00;99862.81;4989309;28;20133;-73
2023/06/01 01:24:40;;;;;;;14.00;6.10;;;;;;;18.48;72.48;99856.59;5017479;28;20132;-73
2023/06/01 01:27:44;;;;;;;14.52;6.05;;;;;;;18.40;72.87;99850.72;5038658;28;20394;-73
2023/06/01 01:30:10;;;;;;;13.30;5.75;;;;;;;18.39;72.40;99845.44;4981138;28;20049;-73
2023/06/01 01:32:37;;;;;;;17.03;5.77;;;;;;;18.36;72.45;99852.66;5039659;28;20025;-73
2023/06/01 01:35:05;;;;;;;12.38;5.30;;;;;;;18.32;72.59;99851.06;5039119;28;20053;-73
2023/06/01 01:37:33;;;;;;;12.95;5.72;;;;;;;18.32;72.67;99851.06;5039819;28;20045;-73
2023/06/01 01:39:58;;;;;;;14.48;6.47;;;;;;;18.33;72.79;99852.78;5042385;28;20071;-72
2023/06/01 01:42:24;;;;;;;14.07;5.60;;;;;;;18.27;72.58;99847.72;5039445;28;20029;-73
2023/06/01 01:44:50;;;;;;;15.93;6.10;;;;;;;18.24;72.86;99846.97;5038883;28;20036;-73
2023/06/01 01:47:34;;;;;;;16.43;6.53;;;;;;;18.22;73.50;99849.72;5038746;28;20049;-72
2023/06/01 01:50:06;;;;;;;16.80;5.88;;;;;;;18.18;73.15;99842.78;5021778;28;20072;-73
2023/06/01 01:52:39;;;;;;;12.65;5.75;;;;;;;18.15;73.21;99842.91;5038703;28;20049;-73
2023/06/01 01:55:07;;;;;;;17.20;6.22;;;;;;;18.16;72.86;99840.19;5038221;28;20095;-72
2023/06/01 01:57:34;;;;;;;11.98;6.00;;;;;;;18.16;73.02;99848.19;5038926;28;20432;-72
2023/06/01 02:00:01;;;;;;;13.17;6.10;;;;;;;18.17;73.08;99846.38;5038971;28;20064;-71
2023/06/01 02:02:27;;;;;;;14.38;6.32;;;;;;;18.19;72.97;99845.38;5021302;28;20048;-72
2023/06/01 02:04:53;;;;;;;14.95;6.38;;;;;;;18.18;73.24;99840.13;5021503;28;20025;-72
2023/06/01 02:07:18;;;;;;;14.70;6.50;;;;;;;18.15;73.34;99842.91;5021582;28;20028;-72
2023/06/01 02:09:44;;;;;;;17.63;6.35;;;;;;;18.08;73.42;99839.63;5038644;28;20076;-72
2023/06/01 02:12:10;;;;;;;15.13;6.70;;;;;;;18.04;73.50;99840.69;5038385;28;20025;-73
2023/06/01 02:14:35;;;;;;;16.23;6.45;;;;;;;18.02;73.57;99843.44;5020066;28;20026;-73
2023/06/01 02:17:01;;;;;;;14.90;6.80;;;;;;;17.99;73.62;99843.53;5040603;28;20089;-73
2023/06/01 02:19:27;;;;;;;13.20;6.75;;;;;;;17.92;73.69;99842.03;5038707;28;20045;-73
2023/06/01 02:21:53;;;;;;;21.97;7.27;;;;;;;17.90;73.88;99833.25;5021917;28;20036;-73
2023/06/01 02:24:18;;;;;;;15.38;6.35;;;;;;;17.88;74.23;99837.78;5020889;28;20022;-73
2023/06/01 02:26:53;;;;;;;13.27;6.60;;;;;;;17.84;74.30;99841.50;5038127;28;20394;-73
2023/06/01 02:29:22;;;;;;;16.67;7.13;;;;;;;17.84;74.27;99838.84;5038503;28;20080;-73
2023/06/01 02:31:50;;;;;;;15.43;6.45;;;;;;;17.84;74.07;99838.84;5038898;28;20040;-73
2023/06/01 02:34:16;;;;;;;13.32;6.35;;;;;;;17.81;74.04;99836.31;5037992;28;20181;-73
2023/06/01 02:36:42;;;;;;;11.77;6.40;;;;;;;17.77;74.18;99833.78;5037950;28;20075;-73
2023/06/01 02:39:07;;;;;;;15.77;6.70;;;;;;;17.78;74.10;99827.50;5024202;28;20049;-73
2023/06/01 02:41:33;;;;;;;11.90;6.40;;;;;;;17.76;74.23;99834.72;5038558;28;20026;-73
2023/06/01 02:43:58;;;;;;;12.98;6.10;;;;;;;17.75;74.04;99838.28;5020423;28;20025;-73
2023/06/01 02:46:24;;;;;;;12.80;5.80;;;;;;;17.72;73.88;99822.41;5019537;28;20540;-73
2023/06/01 02:48:51;;;;;;;14.10;6.00;;;;;;;17.72;74.07;99825.09;5038099;28;20057;-72
2023/06/01 02:51:18;;;;;;;12.05;6.10;;;;;;;17.68;74.06;99828.81;5020515;28;20029;-72
2023/06/01 02:53:44;;;;;;;13.50;5.90;;;;;;;17.65;74.27;99832.47;5037780;28;20033;-72
2023/06/01 02:56:10;;;;;;;12.63;5.78;;;;;;;17.65;73.97;99828.94;5038149;28;20104;-72
2023/06/01 02:58:36;;;;;;;11.47;6.10;;;;;;;17.67;73.91;99815.56;5019896;28;20069;-72
2023/06/01 03:01:01;;;;;;;12.65;5.93;;;;;;;17.67;74.14;99821.75;5020370;28;20112;-72
2023/06/01 03:03:27;;;;;;;12.43;5.57;;;;;;;17.67;73.79;99821.75;5019686;28;20063;-72
2023/06/01 03:05:53;;;;;;;11.80;5.63;;;;;;;17.68;73.84;99817.31;5037842;28;20260;-72
2023/06/01 03:08:19;;;;;;;12.40;5.72;;;;;;;17.67;74.07;99820.91;5038558;28;20049;-72
2023/06/01 03:10:45;;;;;;;11.23;5.30;;;;;;;17.67;73.74;99813.75;5037285;28;20037;-72
2023/06/01 03:13:11;;;;;;;12.77;5.47;;;;;;;17.68;73.96;99820.81;5037807;28;20032;-73
2023/06/01 03:15:37;;;;;;;10.73;5.43;;;;;;;17.71;73.74;99814.50;5021617;28;20037;-72
2023/06/01 03:18:06;;;;;;;12.60;6.22;;;;;;;17.73;73.71;99809.97;5020750;28;20037;-73
2023/06/01 03:20:32;;;;;;;16.85;5.65;;;;;;;17.74;73.56;99809.94;5037982;28;20029;-73
2023/06/01 03:22:58;;;;;;;11.70;5.63;;;;;;;17.71;73.68;99815.34;5036911;28;20132;-72
2023/06/01 03:25:24;;;;;;;12.90;5.50;;;;;;;17.71;73.64;99817.16;5020076;28;20123;-72
2023/06/01 03:27:50;;;;;;;12.45;5.38;;;;;;;17.71;73.72;99812.69;5019602;28;20021;-72
2023/06/01 03:30:16;;;;;;;9.73;4.90;;;;;;;17.72;73.53;99805.59;5037461;28;20026;-72
2023/06/01 03:32:42;;;;;;;10.05;4.32;;;;;;;17.69;73.67;99811.91;5020287;28;20379;-72
2023/06/01 03:35:09;;;;;;;10.00;5.22;;;;;;;17.67;73.51;99813.75;5019450;28;20033;-72
2023/06/01 03:37:36;;;;;;;10.90;5.00;;;;;;;17.66;73.66;99809.38;5020588;28;20037;-72
2023/06/01 03:40:10;;;;;;;12.27;5.50;;;;;;;17.63;73.82;99815.69;5041660;28;20036;-71
2023/06/01 03:42:43;;;;;;;12.20;4.80;;;;;;;17.62;73.71;99810.41;5041960;28;20036;-71
2023/06/01 03:45:10;;;;;;;8.43;4.43;;;;;;;17.49;73.97;99807.38;5041001;28;20042;-72
2023/06/01 03:47:36;;;;;;;9.70;4.63;;;;;;;17.53;73.68;99810.81;5019980;28;20049;-72
2023/06/01 03:50:03;;;;;;;10.27;4.50;;;;;;;17.55;73.55;99809.78;5021559;28;20114;-72
2023/06/01 03:52:28;;;;;;;11.90;4.17;;;;;;;17.54;73.56;99809.88;5021668;28;20029;-72
2023/06/01 03:54:56;;;;;;;9.65;4.82;;;;;;;17.56;73.63;99810.69;5021161;28;20048;-72
2023/06/01 03:57:22;;;;;;;10.02;5.00;;;;;;;17.54;73.67;99815.19;5020564;28;20455;-72
2023/06/01 03:59:48;;;;;;;10.35;4.65;;;;;;;17.46;73.83;99811.03;5020629;28;20521;-72
2023/06/01 04:02:13;;;;;;;10.83;5.00;;;;;;;17.46;73.69;99813.69;5021172;28;20084;-72
2023/06/01 04:04:45;;;;;;;10.10;4.68;;;;;;;17.45;73.79;99817.28;5021183;28;20033;-72
2023/06/01 04:07:14;;;;;;;10.30;5.10;;;;;;;17.41;74.04;99813.00;5021075;28;20030;-71
2023/06/01 04:09:40;;;;;;;13.68;5.43;;;;;;;17.41;73.99;99814.84;5021995;28;20022;-72
2023/06/01 04:12:06;;;;;;;11.90;5.05;;;;;;;17.36;73.95;99812.34;5021151;28;20121;-71
2023/06/01 04:14:31;;;;;;;11.07;4.97;;;;;;;17.32;73.99;99806.25;5020182;28;20060;-72
2023/06/01 04:16:57;;;;;;;12.13;5.10;;;;;;;17.31;74.21;99816.97;5023476;28;20268;-72
2023/06/01 04:19:22;;;;;;;10.10;5.10;;;;;;;17.29;74.14;99816.19;5020951;28;20130;-73
2023/06/01 04:21:48;;;;;;;14.60;4.90;;;;;;;17.30;74.08;99807.25;5021493;28;20030;-72
2023/06/01 04:24:13;;;;;;;14.85;5.10;;;;;;;17.28;74.04;99815.28;5020678;28;20542;-73
2023/06/01 04:26:39;;;;;;;9.30;4.47;;;;;;;17.30;74.03;99817.91;5020711;28;20026;-72
2023/06/01 04:29:05;;;;;;;8.75;5.30;;;;;;;17.31;74.04;99824.97;5020787;28;20393;-73
2023/06/01 04:31:32;;;;;;;11.73;5.30;;;;;;;17.31;73.81;99816.97;5020155;28;20112;-72
2023/06/01 04:34:01;;;;;;;9.57;5.07;;;;;;;17.32;73.93;99821.38;5021418;28;20494;-71
2023/06/01 04:36:29;;;;;;;14.93;5.78;;;;;;;17.33;73.98;99825.78;5019797;28;20048;-72
2023/06/01 04:38:55;;;;;;;11.85;5.13;;;;;;;17.32;73.93;99827.56;5020335;28;20065;-72
2023/06/01 04:41:21;;;;;;;11.85;5.55;;;;;;;17.34;73.87;99827.50;5021135;28;20030;-72
2023/06/01 04:43:53;;;;;;;11.17;5.10;;;;;;;17.36;73.69;99823.88;5021183;28;20025;-72
2023/06/01 04:46:24;;;;;;;10.38;5.47;;;;;;;17.35;73.83;99826.56;5020541;28;20038;-73
2023/06/01 04:48:51;;;;;;;11.48;5.38;;;;;;;17.38;73.41;99825.59;5022445;28;20428;-73
2023/06/01 04:51:19;;;;;;;12.15;5.25;;;;;;;17.41;73.60;99831.66;5022648;28;20040;-72
2023/06/01 04:53:49;;;;;;;13.73;5.40;;;;;;;17.42;73.38;99821.88;5027000;28;20033;-72
2023/06/01 04:56:26;;;;;;;12.47;5.43;;;;;;;17.37;73.69;99830.03;5022526;28;20551;-72
2023/06/01 04:58:53;;;;;;;12.57;5.97;;;;;;;17.34;73.90;99835.50;5040074;28;20033;-72
2023/06/01 05:01:18;;;;;;;10.65;5.20;;;;;;;17.34;73.87;99833.69;5044959;28;20025;-72
2023/06/01 05:03:45;;;;;;;11.90;5.33;;;;;;;17.37;73.79;99835.38;5040565;28;20033;-72
2023/06/01 05:06:12;;;;;;;13.82;5.90;;;;;;;17.37;73.87;99830.03;5031004;28;20084;-72
2023/06/01 05:08:42;;;;;;;13.07;6.05;;;;;;;17.35;74.21;99826.56;5039455;28;20086;-71
2023/06/01 05:11:09;;;;;;;13.10;5.40;;;;;;;17.30;74.30;99831.22;5035741;28;20028;-70
2023/06/01 05:13:35;;;;;;;15.63;6.00;;;;;;;17.33;74.21;99831.94;5016841;28;20030;-72
2023/06/01 05:16:02;;;;;;;11.47;5.93;;;;;;;17.40;74.30;99840.56;5042479;28;20600;-71
2023/06/01 05:18:28;;;;;;;14.98;5.93;;;;;;;17.43;74.13;99829.78;5022601;28;20163;-71
2023/06/01 05:20:53;;;;;;;13.57;5.88;;;;;;;17.46;74.06;99832.31;5022043;28;20029;-71
2023/06/01 05:23:19;;;;;;;14.33;5.87;;;;;;;17.48;73.99;99833.16;5039579;28;20025;-71
2023/06/01 05:25:45;;;;;;;10.97;6.07;;;;;;;17.41;74.52;99820.16;5028988;28;20044;-71
2023/06/01 05:28:10;;;;;;;14.10;6.13;;;;;;;17.46;74.31;99835.00;5039765;28;20060;-71
2023/06/01 05:30:36;;;;;;;18.77;6.43;;;;;;;17.50;74.13;99835.75;5022601;28;20044;-71
2023/06/01 05:33:03;;;;;;;13.95;6.53;;;;;;;17.54;74.17;99828.50;5040856;28;20148;-71
2023/06/01 05:35:29;;;;;;;12.80;5.87;;;;;;;17.56;74.16;99834.63;5031756;28;20029;-71
2023/06/01 05:37:55;;;;;;;11.80;6.43;;;;;;;17.55;74.30;99840.91;5039455;28;20076;-71
2023/06/01 05:40:20;;;;;;;17.23;6.20;;;;;;;17.55;74.25;99839.09;5038304;28;20111;-71
2023/06/01 05:42:46;;;;;;;13.53;6.50;;;;;;;17.59;74.07;99838.03;5039357;28;20628;-71
2023/06/01 05:45:25;;;;;;;14.57;6.28;;;;;;;17.63;74.20;99844.09;5039588;28;20052;-71
2023/06/01 05:47:51;;;;;;;12.80;6.25;;;;;;;17.67;73.97;99840.38;5021787;28;20057;-71
2023/06/01 05:50:16;;;;;;;11.93;6.07;;;;;;;17.68;73.84;99834.13;5039273;28;20108;-71
2023/06/01 05:52:42;;;;;;;13.00;6.00;;;;;;;17.70;73.78;99837.59;5021714;28;20033;-73
2023/06/01 05:55:08;;;;;;;13.43;6.28;;;;;;;17.74;73.93;99844.56;5032735;28;20072;-72
2023/06/01 05:57:34;;;;;;;10.90;5.90;;;;;;;17.76;73.92;99839.16;5012594;28;20033;-72
2023/06/01 05:59:59;;;;;;;11.02;6.10;;;;;;;17.81;73.67;99831.84;5038770;28;20029;-71
2023/06/01 06:02:25;;;;;;;14.60;6.00;;;;;;;17.82;73.63;99846.88;5037231;28;20034;-71
2023/06/01 06:04:50;;;;;;;11.10;6.13;;;;;;;17.81;73.68;99836.31;5037480;28;20470;-71
2023/06/01 06:07:16;;;;;;;12.10;5.90;;;;;;;17.83;73.68;99837.09;5017957;28;20087;-71
2023/06/01 06:09:41;;;;;;;13.57;6.15;;;;;;;17.85;73.68;99845.91;5036602;28;20470;-71
2023/06/01 06:12:07;;;;;;;12.23;6.53;;;;;;;17.87;73.79;99838.72;5018054;28;20049;-72
2023/06/01 06:14:36;;;;;;;14.30;7.03;;;;;;;17.87;74.00;99834.25;5030490;28;20465;-73
2023/06/01 06:17:02;;;;;;;15.13;6.90;;;;;;;17.90;73.72;99841.25;5031420;28;20063;-72
2023/06/01 06:19:27;;;;;;;15.00;6.43;;;;;;;17.91;73.87;99841.19;5029452;28;20056;-72
2023/06/01 06:21:53;;;;;;;14.38;7.10;;;;;;;17.91;74.10;99849.19;5012969;28;20036;-72
2023/06/01 06:24:18;;;;;;;14.40;6.73;;;;;;;17.89;74.14;99844.84;5017768;28;20033;-72
2023/06/01 06:26:44;;;;;;;12.03;6.20;;;;;;;17.90;74.04;99843.91;5019039;28;20037;-73
2023/06/01 06:29:10;;;;;;;14.20;6.45;;;;;;;17.93;74.03;99846.44;5015635;28;20371;-72
2023/06/01 06:31:36;;;;;;;16.03;6.63;;;;;;;17.93;74.08;99843.78;5028007;28;20156;-71
2023/06/01 06:34:01;;;;;;;15.45;7.32;;;;;;;17.91;74.25;99840.31;5018592;28;20032;-72
2023/06/01 06:36:26;;;;;;;17.63;7.13;;;;;;;17.89;74.32;99847.50;5035364;28;20033;-71
2023/06/01 06:38:52;;;;;;;14.37;7.00;;;;;;;17.92;74.63;99842.94;5036598;28;20040;-70
2023/06/01 06:41:17;;;;;;;14.13;6.43;;;;;;;17.93;74.46;99849.09;5017928;28;20124;-71
2023/06/01 06:43:43;;;;;;;12.18;6.45;;;;;;;17.93;74.58;99849.09;5036784;28;20056;-71
2023/06/01 06:46:09;;;;;;;16.50;6.50;;;;;;;18.01;74.62;99855.03;5036720;28;20039;-71
2023/06/01 06:48:34;;;;;;;18.05;7.22;;;;;;;18.08;74.31;99853.84;5015194;28;20077;-71
2023/06/01 06:51:00;;;;;;;15.70;7.57;;;;;;;18.06;74.67;99860.16;5016995;28;20036;-71
2023/06/01 06:53:26;;;;;;;14.68;6.45;;;;;;;18.08;74.59;99856.50;5015389;28;20025;-71
2023/06/01 06:55:51;;;;;;;13.43;6.80;;;;;;;18.11;74.44;99857.28;5016713;28;20037;-71
2023/06/01 06:58:17;;;;;;;14.57;6.70;;;;;;;18.17;74.27;99855.25;5016473;28;20054;-71
2023/06/01 07:00:43;;;;;;;13.65;6.70;;;;;;;18.22;74.19;99855.06;5016328;28;20026;-70
2023/06/01 07:03:09;;;;;;;12.07;6.23;;;;;;;18.20;74.40;99862.22;5015880;28;20084;-71
2023/06/01 07:05:34;;;;;;;12.95;6.47;;;;;;;18.24;74.17;99865.66;5016969;28;20657;-70
2023/06/01 07:08:00;;;;;;;14.07;7.53;;;;;;;18.27;74.40;99862.84;5015334;28;20033;-71
2023/06/01 07:10:26;;;;;;;15.93;6.95;;;;;;;18.29;74.16;99861.84;5016723;28;20080;-71
2023/06/01 07:12:55;;;;;;;13.68;6.80;;;;;;;18.30;74.14;99858.25;5016984;28;20045;-71
2023/06/01 07:15:21;;;;;;;14.00;6.87;;;;;;;18.33;73.87;99857.28;5017562;28;20030;-70
2023/06/01 07:17:47;;;;;;;14.00;7.25;;;;;;;18.31;74.19;99862.66;5017964;28;20026;-70
2023/06/01 07:20:12;;;;;;;16.05;6.72;;;;;;;18.33;74.38;99858.13;5018265;28;20107;-70
2023/06/01 07:22:39;;;;;;;15.53;6.93;;;;;;;18.37;74.24;99864.19;5016402;28;20045;-70
2023/06/01 07:25:09;;;;;;;17.98;7.55;;;;;;;18.40;74.05;99863.19;5016355;28;20076;-70
2023/06/01 07:27:44;;;;;;;15.95;7.05;;;;;;;18.46;74.25;99862.94;5018561;28;20045;-71
2023/06/01 07:30:13;;;;;;;16.77;7.80;;;;;;;18.56;73.62;99872.25;5014220;28;20022;-71
2023/06/01 07:32:38;;;;;;;16.02;8.05;;;;;;;18.60;74.01;99865.00;5005714;28;20061;-71
2023/06/01 07:35:06;;;;;;;12.85;6.93;;;;;;;18.61;73.55;99867.59;5016496;28;20042;-71
2023/06/01 07:37:32;;;;;;;12.38;6.50;;;;;;;18.62;73.63;99869.31;5016512;28;20025;-70
2023/06/01 07:39:57;;;;;;;15.33;7.47;;;;;;;18.46;73.92;99879.78;5017167;28;20109;-70
2023/06/01 07:42:23;;;;;;;13.68;7.32;;;;;;;18.49;73.76;99873.47;5017562;28;20054;-70
2023/06/01 07:44:48;;;;;;;12.20;6.37;;;;;;;18.52;73.72;99878.66;5015943;28;20510;-70
2023/06/01 07:47:14;;;;;;;15.68;7.45;;;;;;;18.54;73.68;99874.13;5015825;28;20433;-71
2023/06/01 07:49:40;;;;;;;12.23;6.47;;;;;;;18.54;73.62;99875.91;5016003;28;20066;-71
2023/06/01 07:52:07;;;;;;;13.73;7.15;;;;;;;18.53;73.55;99877.72;5017286;28;20029;-70
2023/06/01 07:54:35;;;;;;;13.15;6.80;;;;;;;18.56;73.56;99874.94;5017066;28;20038;-71
2023/06/01 07:57:02;;;;;;;15.90;6.70;;;;;;;18.52;73.58;99881.34;5017544;28;20172;-71
2023/06/01 07:59:29;;;;;;;14.23;7.30;;;;;;;18.55;73.60;99883.84;5020630;28;20228;-70
2023/06/01 08:01:55;;;;;;;14.57;6.90;;;;;;;18.58;73.55;99870.38;5017142;28;20029;-71
2023/06/01 08:04:21;;;;;;;11.07;6.70;;;;;;;18.64;73.40;99878.09;5016923;28;20033;-71
2023/06/01 08:06:47;;;;;;;14.10;6.93;;;;;;;18.68;73.17;99870.84;5010163;28;20529;-70
2023/06/01 08:09:13;;;;;;;11.43;6.78;;;;;;;18.80;73.03;99872.09;5010334;28;20026;-71
2023/06/01 08:11:39;;;;;;;14.40;7.00;;;;;;;18.93;72.77;99867.09;5015713;28;20490;-70
2023/06/01 08:14:07;;;;;;;17.03;7.23;;;;;;;19.08;72.38;99870.88;5016033;28;20044;-71
2023/06/01 08:16:33;;;;;;;15.88;6.50;;;;;;;19.22;72.28;99873.78;5017703;28;20026;-70
2023/06/01 08:18:59;;;;;;;13.82;6.10;;;;;;;19.36;72.02;99874.94;5016392;28;20034;-70
2023/06/01 08:21:25;;;;;;;11.73;6.83;;;;;;;19.46;71.67;99876.25;5017013;28;20028;-70
2023/06/01 08:23:52;;;;;;;14.52;6.85;;;;;;;19.57;71.71;99875.75;5015805;28;20163;-70
2023/06/01 08:26:22;;;;;;;13.90;6.72;;;;;;;19.65;71.18;99875.34;5019629;28;20026;-71
2023/06/01 08:28:51;;;;;;;12.15;6.53;;;;;;;19.73;71.15;99881.22;5020024;28;20029;-71
2023/06/01 08:31:25;;;;;;;13.73;7.00;;;;;;;19.82;70.80;99876.34;5019580;28;20025;-70
2023/06/01 08:33:51;;;;;;;12.93;6.85;;;;;;;19.82;70.25;99879.00;5020335;28;20057;-71
2023/06/01 08:36:17;;;;;;;15.50;6.70;;;;;;;19.79;70.55;99872.88;5018967;28;20030;-70
2023/06/01 08:38:43;;;;;;;11.60;6.20;;;;;;;19.80;70.34;99879.97;5020008;28;20638;-70
2023/06/01 08:41:44;;;;;;;13.40;6.60;;;;;;;19.66;70.34;99869.09;5020083;28;20026;-70
2023/06/01 08:44:11;;;;;;;15.35;5.60;;;;;;;19.69;70.43;99874.28;5008554;28;20034;-71
2023/06/01 08:46:41;;;;;;;11.35;5.75;;;;;;;19.66;70.58;99871.75;5021370;28;20041;-70
2023/06/01 08:49:08;;;;;;;13.88;6.47;;;;;;;19.71;70.54;99868.84;5022641;28;20025;-71
2023/06/01 08:51:37;;;;;;;13.20;5.45;;;;;;;19.73;70.46;99881.22;5022494;28;20026;-70
2023/06/01 08:54:05;;;;;;;11.17;5.23;;;;;;;19.77;70.38;99868.53;5022541;28;20052;-70
2023/06/01 08:56:31;;;;;;;12.88;6.50;;;;;;;19.74;70.43;99866.91;5040192;28;20025;-71
2023/06/01 08:58:56;;;;;;;12.18;5.72;;;;;;;19.82;70.52;99876.34;5023274;28;20039;-70
2023/06/01 09:01:23;;;;;;;14.53;6.80;;;;;;;19.78;70.67;99865.81;5030356;28;20156;-71
2023/06/01 09:03:50;;;;;;;12.82;5.75;;;;;;;19.85;70.00;99860.16;5022848;28;20030;-71
2023/06/01 09:06:16;;;;;;;11.90;5.50;;;;;;;19.92;69.64;99877.69;5019518;28;20441;-71
2023/06/01 09:08:41;;;;;;;11.90;5.60;;;;;;;20.07;69.60;99865.34;5012524;28;20121;-71
2023/06/01 09:11:07;;;;;;;14.87;5.30;;;;;;;20.20;68.81;99862.91;5021753;28;20053;-71
2023/06/01 09:13:37;;;;;;;11.60;5.30;;;;;;;20.34;68.95;99862.22;5040330;28;20056;-70
2023/06/01 09:16:03;;;;;;;12.73;5.60;;;;;;;20.46;68.20;99860.72;5042243;28;20053;-71
2023/06/01 09:18:29;;;;;;;10.48;5.43;;;;;;;20.56;68.45;99855.75;5022589;28;20037;-71
2023/06/01 09:21:10;;;;;;;11.98;4.80;;;;;;;20.60;67.82;99852.81;5021800;28;20028;-71
2023/06/01 09:23:37;;;;;;;9.33;4.57;;;;;;;20.69;67.70;99847.94;5022035;28;20092;-71
2023/06/01 09:26:08;;;;;;;9.68;4.70;;;;;;;20.71;67.61;99848.72;5021357;28;20033;-71
2023/06/01 09:28:55;;;;;;;10.73;5.03;;;;;;;20.75;66.51;99847.59;5021585;28;20382;-71
2023/06/01 09:31:47;;;;;;;11.05;4.97;;;;;;;20.75;66.19;99842.25;5026417;28;20159;-72
2023/06/01 09:34:18;;;;;;;11.05;5.18;;;;;;;20.81;66.27;99841.94;5021841;28;20079;-71
2023/06/01 09:36:48;;;;;;;12.47;4.87;;;;;;;20.87;66.04;99838.97;5039211;28;20024;-71
2023/06/01 09:39:16;;;;;;;12.05;4.90;;;;;;;20.95;65.75;99835.84;5021638;28;20022;-70
2023/06/01 09:41:52;;;;;;;11.38;4.65;;;;;;;20.97;65.91;99835.78;5038400;28;20363;-71
2023/06/01 09:44:29;;;;;;;12.48;5.38;;;;;;;20.89;65.56;99837.06;5020821;28;20026;-71
2023/06/01 09:47:14;;;;;;;12.35;5.25;;;;;;;20.81;65.55;99838.44;5020903;28;20394;-71
2023/06/01 09:49:44;;;;;;;10.60;5.00;;;;;;;20.73;65.21;99836.13;5021108;28;20060;-70
2023/06/01 09:52:14;;;;;;;12.05;5.40;;;;;;;20.68;65.77;99836.38;5021009;28;20128;-70
2023/06/01 09:54:43;;;;;;;17.33;5.97;;;;;;;20.69;66.62;99831.88;5020515;28;20033;-71
2023/06/01 09:57:10;;;;;;;13.80;5.68;;;;;;;20.61;66.87;99841.16;5037858;28;20032;-70
2023/06/01 09:59:44;;;;;;;11.73;5.90;;;;;;;20.49;67.13;99834.66;5037941;28;20029;-73
2023/06/01 10:02:21;;;;;;;13.03;5.87;;;;;;;20.43;66.76;99839.47;5038186;28;20112;-71
2023/06/01 10:04:53;;;;;;;10.57;5.20;;;;;;;20.44;67.93;99841.22;5038089;28;20057;-70
2023/06/01 10:07:20;;;;;;;12.45;6.30;;;;;;;20.41;68.08;99846.72;5009577;28;20037;-69
2023/06/01 10:09:50;;;;;;;12.70;6.10;;;;;;;20.39;68.50;99837.91;5037189;28;20022;-70
2023/06/01 10:12:16;;;;;;;11.88;5.97;;;;;;;20.41;68.53;99842.22;5030712;28;20030;-71
2023/06/01 10:14:42;;;;;;;11.93;6.07;;;;;;;20.49;68.90;99833.81;5036848;28;20491;-71
2023/06/01 10:17:09;;;;;;;12.18;5.68;;;;;;;20.79;68.29;99830.44;5021804;28;20048;-71
2023/06/01 10:19:39;;;;;;;12.38;6.07;;;;;;;21.11;68.63;99824.31;5020043;28;20030;-71
2023/06/01 10:22:06;;;;;;;12.67;6.60;;;;;;;21.37;67.96;99814.84;5039394;28;20037;-71
2023/06/01 10:24:32;;;;;;;12.88;6.18;;;;;;;21.57;67.41;99821.72;5007113;28;20021;-72
2023/06/01 10:27:06;;;;;;;12.90;6.25;;;;;;;21.64;66.84;99823.13;5019939;28;20117;-72
2023/06/01 10:29:32;;;;;;;14.20;6.35;;;;;;;21.83;66.82;99824.75;5037755;28;20018;-72
2023/06/01 10:31:58;;;;;;;10.68;6.20;;;;;;;21.98;66.56;99820.31;5049071;28;20029;-71
2023/06/01 10:34:44;;;;;;;11.77;6.00;;;;;;;21.95;65.23;99820.50;5037909;28;20031;-73
2023/06/01 10:37:13;;;;;;;11.32;5.90;;;;;;;22.06;65.94;99815.38;5037525;28;20029;-74
2023/06/01 10:39:39;;;;;;;12.27;6.40;;;;;;;22.35;65.71;99822.59;5037440;28;20034;-73
2023/06/01 10:42:13;;;;;;;11.25;6.38;;;;;;;22.65;65.01;99806.47;5019478;28;20029;-73
2023/06/01 10:44:38;;;;;;;11.32;5.63;;;;;;;22.97;63.93;99812.59;5019707;28;20029;-74
2023/06/01 10:47:05;;;;;;;14.97;6.00;;;;;;;23.09;63.87;99801.09;5018397;28;20057;-73
2023/06/01 10:49:52;;;;;;;11.45;5.88;;;;;;;23.10;63.35;99800.13;5019575;28;20040;-74
2023/06/01 10:52:32;;;;;;;10.75;5.80;;;;;;;23.10;62.14;99797.44;5008928;28;20052;-73
2023/06/01 10:55:19;;;;;;;11.13;5.73;;;;;;;22.92;61.39;99802.19;5019839;28;20117;-73
2023/06/01 10:57:46;;;;;;;10.35;5.72;;;;;;;22.93;61.06;99795.84;5019114;28;20482;-73
2023/06/01 11:00:18;;;;;;;10.05;5.53;;;;;;;22.78;61.03;99795.84;5036872;28;20026;-73
2023/06/01 11:03:01;;;;;;;11.05;5.20;;;;;;;22.65;61.55;99803.81;5018836;28;20025;-73
2023/06/01 11:05:46;;;;;;;13.13;5.57;;;;;;;22.51;61.16;99799.28;5036823;28;20029;-73
2023/06/01 11:08:24;;;;;;;10.33;5.37;;;;;;;22.35;60.26;99793.97;5024007;28;20028;-73
2023/06/01 11:10:52;;;;;;;10.38;5.65;;;;;;;22.33;59.87;99806.63;5036388;28;20041;-73
2023/06/01 11:13:21;;;;;;;9.93;5.70;;;;;;;22.31;60.39;99805.84;5024847;28;20029;-73
2023/06/01 11:18:59;;;;;;;10.43;5.90;;;;;;;22.26;59.10;99807.06;5036415;28;20052;-70
2023/06/01 11:21:39;;;;;;;10.90;5.13;;;;;;;22.31;59.66;99795.13;5003889;28;20442;-73
2023/06/01 11:24:09;;;;;;;10.18;5.35;;;;;;;22.33;59.44;99793.22;5036419;28;20083;-73
2023/06/01 11:26:39;;;;;;;10.02;5.53;;;;;;;22.40;58.18;99790.13;5036145;28;20036;-72
2023/06/01 11:29:07;;;;;;;10.20;5.18;;;;;;;22.48;58.04;99794.13;5036252;28;20032;-72
2023/06/01 11:31:41;;;;;;;10.02;5.47;;;;;;;22.50;57.60;99794.00;5046011;28;20029;-72
2023/06/01 11:34:08;;;;;;;10.73;5.33;;;;;;;22.55;56.97;99789.25;5037498;28;20040;-73
2023/06/01 11:36:41;;;;;;;8.95;5.03;;;;;;;22.64;56.71;99790.47;5036644;28;20025;-72